Time;durP1;ratioP1;P1;durP2;ratioP2;P2;SDS_P1;SDS_P2;PMS_P1;PMS_P2;Temp;Humidity;BMP_temperature;BMP_pressure;BME280_temperature;BME280_humidity;BME280_pressure;Samples;Min_cycle;Max_cycle;Signal;HPM_P1;HPM_P2
2023/02/20 00:00:49;;;;;;;0.60;0.60;;;7.60;90.20;;;7.38;71.37;95597.22;5057301;28;20261;-17
2023/02/20 00:03:16;;;;;;;0.60;0.60;;;7.60;90.10;;;7.39;71.40;95604.06;5056845;28;20640;-17
2023/02/20 00:05:43;;;;;;;0.60;0.60;;;7.60;90.10;;;7.37;71.76;95599.00;5056071;28;20602;-17
2023/02/20 00:08:10;;;;;;;0.70;0.70;;;7.60;90.10;;;7.37;71.90;95593.78;5055921;28;20631;-17
2023/02/20 00:10:37;;;;;;;0.50;0.50;;;7.60;90.10;;;7.42;71.58;95593.34;5057049;28;20227;-17
2023/02/20 00:13:04;;;;;;;0.60;0.60;;;7.60;90.10;;;7.44;71.72;95582.72;5055810;28;20188;-17
2023/02/20 00:15:31;;;;;;;0.63;0.63;;;7.60;90.10;;;7.49;71.61;95581.28;5055958;28;20191;-17
2023/02/20 00:17:58;;;;;;;0.70;0.70;;;7.70;90.20;;;7.53;71.31;95592.22;5057241;28;20204;-17
2023/02/20 00:20:26;;;;;;;0.63;0.63;;;7.70;90.20;;;7.59;71.64;95589.00;5056547;28;20227;-18
2023/02/20 00:22:54;;;;;;;0.70;0.70;;;7.70;90.20;;;7.60;71.24;95584.59;5056415;28;20746;-17
2023/02/20 00:25:21;;;;;;;0.60;0.60;;;7.80;90.20;;;7.58;71.43;95579.53;5057154;28;20242;-17
2023/02/20 00:27:49;;;;;;;0.70;0.70;;;7.80;90.20;;;7.63;71.47;95577.28;5056531;28;20274;-17
2023/02/20 00:30:22;;;;;;;0.70;0.70;;;7.80;90.20;;;7.68;71.26;95577.59;5055548;28;20214;-17
2023/02/20 00:32:55;;;;;;;0.70;0.70;;;7.80;90.20;;;7.67;71.47;95567.34;5055372;28;20195;-17
2023/02/20 00:35:24;;;;;;;0.60;0.60;;;7.90;90.20;;;7.69;71.22;95576.66;5056529;28;20604;-17
2023/02/20 00:37:53;;;;;;;0.60;0.60;;;7.90;90.20;;;7.69;71.31;95571.41;5055800;28;20525;-17
2023/02/20 00:40:23;;;;;;;0.60;0.60;;;7.90;90.20;;;7.70;71.41;95569.63;5056271;28;20210;-17
2023/02/20 00:42:50;;;;;;;0.60;0.60;;;7.90;90.20;;;7.74;71.28;95570.94;5056256;28;20192;-17
2023/02/20 00:45:18;;;;;;;0.60;0.60;;;7.90;90.20;;;7.78;71.53;95571.47;5056336;28;20192;-17
2023/02/20 00:47:45;;;;;;;0.70;0.70;;;7.90;90.20;;;7.83;71.32;95571.78;5056425;28;20192;-17
2023/02/20 00:50:16;;;;;;;0.70;0.70;;;8.00;90.20;;;7.83;71.14;95562.16;5071840;28;20192;-17
2023/02/20 00:52:44;;;;;;;0.60;0.60;;;8.00;90.20;;;7.85;71.37;95568.03;5054083;28;20274;-17
2023/02/20 00:55:11;;;;;;;0.60;0.60;;;8.00;90.20;;;7.88;71.08;95555.66;5055098;28;20195;-17
2023/02/20 00:57:38;;;;;;;0.60;0.60;;;8.10;90.30;;;7.87;70.80;95549.59;5055957;28;20611;-17
2023/02/20 01:00:08;;;;;;;0.70;0.70;;;8.10;90.20;;;7.88;71.01;95553.03;5055947;28;20204;-17
2023/02/20 01:02:37;;;;;;;0.65;0.65;;;8.10;90.20;;;7.89;71.38;95550.25;5054786;28;20294;-17
2023/02/20 01:05:05;;;;;;;0.75;0.75;;;8.10;90.30;;;7.90;71.51;95544.06;5055218;28;20203;-17
2023/02/20 01:07:32;;;;;;;0.60;0.60;;;8.10;90.30;;;7.95;71.40;95538.38;5056061;28;20286;-17
2023/02/20 01:09:59;;;;;;;0.70;0.70;;;8.10;90.30;;;7.97;71.50;95539.00;5055742;28;20196;-17
2023/02/20 01:12:26;;;;;;;0.70;0.70;;;8.20;90.30;;;7.98;71.15;95538.03;5054509;28;20220;-17
2023/02/20 01:14:53;;;;;;;0.60;0.60;;;8.20;90.30;;;7.99;71.39;95537.06;5055647;28;20203;-17
2023/02/20 01:17:20;;;;;;;0.60;0.60;;;8.20;90.30;;;8.02;71.37;95536.75;5055798;28;20234;-17
2023/02/20 01:19:47;;;;;;;0.60;0.60;;;8.20;90.30;;;8.00;71.14;95525.63;5054733;28;20267;-17
2023/02/20 01:22:14;;;;;;;0.70;0.70;;;8.30;90.30;;;8.00;71.28;95521.22;5054473;28;20211;-17
2023/02/20 01:24:42;;;;;;;0.60;0.60;;;8.20;90.30;;;7.99;71.42;95519.59;5056854;28;20214;-17
2023/02/20 01:27:09;;;;;;;0.60;0.60;;;8.20;90.30;;;8.02;71.31;95519.28;5071353;28;20196;-17
2023/02/20 01:29:36;;;;;;;0.60;0.60;;;8.20;90.30;;;8.02;71.14;95521.88;5071105;28;20215;-17
2023/02/20 01:32:03;;;;;;;0.80;0.80;;;8.30;90.30;;;8.04;71.21;95518.31;5055137;28;20212;-17
2023/02/20 01:34:30;;;;;;;0.60;0.60;;;8.30;90.30;;;8.08;71.41;95517.81;5054366;28;20207;-17
2023/02/20 01:36:58;;;;;;;0.60;0.60;;;8.30;90.30;;;8.07;71.16;95510.97;5054325;28;20203;-17
2023/02/20 01:39:29;;;;;;;0.70;0.70;;;8.30;90.30;;;8.08;71.39;95511.75;5055248;28;20588;-17
2023/02/20 01:42:04;;;;;;;0.70;0.70;;;8.40;90.20;;;8.09;71.33;95506.41;5054238;28;20195;-17
2023/02/20 01:44:35;;;;;;;0.60;0.60;;;8.30;90.10;;;8.16;71.00;95517.00;5071163;28;20180;-17
2023/02/20 01:47:14;;;;;;;0.63;0.63;;;8.40;90.20;;;8.10;70.97;95504.59;5055291;28;20306;-17
2023/02/20 01:50:05;;;;;;;0.60;0.60;;;8.40;90.10;;;8.08;71.07;95502.16;5054177;28;20596;-17
2023/02/20 01:52:37;;;;;;;0.70;0.70;;;8.30;90.10;;;8.05;71.09;95502.47;5053912;28;20306;-17
2023/02/20 01:55:25;;;;;;;0.60;0.60;;;8.40;90.20;;;8.03;70.82;95493.97;5070732;28;20578;-17
2023/02/20 01:58:23;;;;;;;0.70;0.70;;;8.30;90.00;;;8.04;71.12;95490.38;5055322;28;20180;-17
2023/02/20 02:00:51;;;;;;;0.70;0.70;;;8.30;90.10;;;8.09;71.08;95495.13;5055207;28;20249;-17
2023/02/20 02:03:24;;;;;;;0.70;0.70;;;8.40;90.20;;;8.04;70.96;95489.56;5053766;28;20200;-17
2023/02/20 02:05:58;;;;;;;0.80;0.80;;;8.30;90.10;;;8.03;71.13;95499.19;5054478;28;20198;-17
2023/02/20 02:08:27;;;;;;;0.70;0.70;;;8.30;90.10;;;8.04;70.99;95498.22;5055499;28;20643;-17
2023/02/20 02:11:11;;;;;;;0.70;0.70;;;8.30;90.10;;;8.07;71.05;95505.75;5070722;28;20192;-17
2023/02/20 02:13:41;;;;;;;0.70;0.70;;;8.30;90.00;;;8.04;71.31;95498.22;5054228;28;20603;-17
2023/02/20 02:16:34;;;;;;;0.70;0.70;;;8.30;90.20;;;8.07;71.19;95500.50;5054836;28;20184;-17
2023/02/20 02:19:16;;;;;;;0.70;0.70;;;8.30;90.20;;;8.14;71.49;95501.50;5054805;28;20227;-17
2023/02/20 02:22:31;;;;;;;0.70;0.70;;;8.30;90.20;;;8.11;71.10;95498.41;5053795;28;20195;-17
2023/02/20 02:25:53;;;;;;;0.60;0.60;;;8.40;90.10;;;8.11;71.18;95488.75;5054456;28;20189;-17
2023/02/20 02:28:49;;;;;;;0.63;0.63;;;8.40;90.10;;;8.12;71.32;95479.13;5054609;28;20192;-17
2023/02/20 02:32:03;;;;;;;0.60;0.60;;;8.40;90.20;;;8.09;71.10;95476.81;5053698;28;20227;-17
2023/02/20 02:34:50;;;;;;;0.60;0.60;;;8.40;90.10;;;8.09;71.28;95471.59;5054463;28;20523;-17
2023/02/20 02:37:26;;;;;;;0.60;0.60;;;8.30;90.10;;;8.10;71.34;95471.44;5054613;28;20175;-17
2023/02/20 02:40:27;;;;;;;0.70;0.70;;;8.30;90.10;;;8.09;71.44;95474.22;5054531;28;20187;-17
2023/02/20 02:43:22;;;;;;;0.70;0.70;;;8.40;90.20;;;8.08;71.42;95464.75;5054409;28;20195;-17
2023/02/20 02:45:55;;;;;;;0.70;0.70;;;8.40;90.20;;;8.13;71.72;95470.28;5053823;28;20200;-17
2023/02/20 02:48:50;;;;;;;0.70;0.70;;;8.40;90.30;;;8.19;71.69;95480.13;5054541;28;20192;-17
2023/02/20 02:51:33;;;;;;;0.70;0.70;;;8.40;90.30;;;8.21;71.78;95493.81;5053855;28;20230;-18
2023/02/20 02:54:25;;;;;;;0.63;0.63;;;8.50;90.30;;;8.22;71.81;95490.22;5053374;28;20196;-17
2023/02/20 02:57:25;;;;;;;0.65;0.65;;;8.50;90.30;;;8.25;71.09;95486.47;5055020;28;20187;-17
2023/02/20 02:59:59;;;;;;;0.80;0.80;;;8.50;90.30;;;8.27;71.47;95489.75;5053487;28;20219;-17
2023/02/20 03:02:32;;;;;;;0.70;0.70;;;8.50;90.30;;;8.29;70.91;95485.19;5069989;28;20303;-17
2023/02/20 03:05:03;;;;;;;0.70;0.70;;;8.50;90.10;;;8.31;71.18;95491.03;5054385;28;20680;-17
2023/02/20 03:07:35;;;;;;;0.70;0.70;;;8.50;90.30;;;8.29;71.20;95491.22;5069759;28;20192;-17
2023/02/20 03:10:08;;;;;;;0.88;0.88;;;8.60;90.30;;;8.29;70.88;95488.59;5053510;28;20261;-17
2023/02/20 03:12:40;;;;;;;0.60;0.60;;;8.50;90.10;;;8.32;70.90;95508.38;5070071;28;20212;-17
2023/02/20 03:18:25;;;;;;;0.70;0.70;;;8.50;90.10;;;8.30;70.99;95499.84;5073508;28;20214;-17
2023/02/20 03:21:05;;;;;;;0.70;0.70;;;8.50;90.20;;;8.33;71.14;95496.94;5056958;28;20196;-17
2023/02/20 03:23:39;;;;;;;0.80;0.80;;;8.50;90.10;;;8.34;71.13;95491.53;5073553;28;20184;-17
2023/02/20 03:26:16;;;;;;;0.70;0.70;;;8.50;90.20;;;8.37;71.26;95500.84;5073510;28;20188;-17
2023/02/20 03:28:56;;;;;;;0.70;0.70;;;8.60;90.20;;;8.40;71.12;95500.53;5073567;28;20196;-17
2023/02/20 03:31:33;;;;;;;0.80;0.80;;;8.60;90.10;;;8.40;70.88;95497.91;5056679;28;20207;-17
2023/02/20 03:45:40;;;;;;;0.70;0.70;;;8.60;90.10;;;8.37;71.30;95484.34;5043173;28;20200;-17
2023/02/20 03:48:37;;;;;;;0.80;0.80;;;8.60;90.20;;;8.40;71.00;95489.25;5073082;28;20269;-17
2023/02/20 03:51:10;;;;;;;0.70;0.70;;;8.60;90.10;;;8.39;70.91;95488.44;5056721;28;20489;-17
2023/02/20 03:53:47;;;;;;;0.70;0.70;;;8.70;90.20;;;8.40;71.00;95491.84;5041994;28;20696;-17
2023/02/20 03:56:51;;;;;;;0.60;0.60;;;8.70;90.20;;;8.40;70.51;95494.47;5057195;28;20251;-17
2023/02/20 03:59:23;;;;;;;0.70;0.70;;;8.70;90.00;;;8.38;70.65;95502.47;5050669;28;20204;-17
2023/02/20 04:01:56;;;;;;;0.70;0.70;;;8.70;90.10;;;8.39;70.76;95501.50;5056100;28;20539;-17
2023/02/20 04:04:48;;;;;;;0.68;0.68;;;8.70;90.10;;;8.40;70.52;95497.09;5057285;28;20265;-17
2023/02/20 04:07:26;;;;;;;0.60;0.60;;;8.70;90.00;;;8.40;70.51;95499.69;5056184;28;20204;-17
2023/02/20 04:10:01;;;;;;;0.70;0.70;;;8.70;90.00;;;8.37;70.83;95494.81;5057152;28;20267;-17
2023/02/20 04:12:39;;;;;;;0.60;0.60;;;8.70;90.10;;;8.33;70.65;95496.94;5055710;28;20238;-17
2023/02/20 04:15:09;;;;;;;0.70;0.70;;;8.60;90.00;;;8.36;70.46;95487.94;5039701;28;20253;-17
2023/02/20 04:17:48;;;;;;;0.70;0.70;;;8.60;90.00;;;8.34;71.17;95486.31;5055814;28;20286;-17
2023/02/20 04:20:16;;;;;;;0.80;0.80;;;8.60;90.10;;;8.34;70.48;95482.88;5055659;28;20239;-17
2023/02/20 04:23:00;;;;;;;0.70;0.70;;;8.60;90.00;;;8.32;70.38;95472.59;5055541;28;20200;-17
2023/02/20 04:25:54;;;;;;;0.70;0.70;;;8.60;90.00;;;8.29;70.27;95483.38;5056819;28;20200;-17
2023/02/20 04:28:23;;;;;;;0.60;0.60;;;8.50;89.70;;;8.26;70.52;95477.66;5055652;28;20215;-17
2023/02/20 04:30:55;;;;;;;0.70;0.70;;;8.50;90.00;;;8.25;70.60;95482.06;5072106;28;20188;-17
2023/02/20 04:33:24;;;;;;;0.60;0.60;;;8.50;90.10;;;8.16;70.52;95477.81;5072151;28;20226;-17
2023/02/20 04:35:57;;;;;;;0.70;0.70;;;8.40;90.00;;;8.21;70.87;95485.16;5072163;28;20188;-17
2023/02/20 04:38:25;;;;;;;0.70;0.70;;;8.40;90.10;;;8.20;70.76;95499.22;5055986;28;20195;-17
2023/02/20 04:40:52;;;;;;;0.77;0.77;;;8.40;90.10;;;8.13;71.03;95484.19;5055373;28;20294;-17
2023/02/20 04:43:21;;;;;;;0.77;0.77;;;8.40;90.10;;;8.13;70.77;95496.41;5071910;28;20216;-17
2023/02/20 04:45:50;;;;;;;0.80;0.80;;;8.40;90.10;;;8.13;70.77;95485.97;5072183;28;20632;-17
2023/02/20 04:48:17;;;;;;;0.80;0.80;;;8.40;90.10;;;8.14;70.42;95495.44;5055217;28;20565;-17
2023/02/20 04:50:45;;;;;;;0.75;0.75;;;8.40;90.10;;;8.13;70.60;95489.41;5071882;28;20196;-17
2023/02/20 04:53:14;;;;;;;0.70;0.70;;;8.30;90.00;;;8.14;70.60;95487.59;5054902;28;20310;-17
2023/02/20 04:55:41;;;;;;;0.60;0.60;;;8.30;90.00;;;8.09;70.86;95479.44;5056304;28;20210;-17
2023/02/20 04:58:12;;;;;;;0.70;0.70;;;8.30;90.10;;;8.10;71.06;95478.47;5071721;28;20204;-17
2023/02/20 05:01:01;;;;;;;0.60;0.60;;;8.30;90.20;;;8.09;70.73;95480.28;5055272;28;20535;-17
2023/02/20 05:03:28;;;;;;;0.70;0.70;;;8.30;90.40;;;8.07;70.63;95468.31;5071405;28;20192;-17
2023/02/20 05:05:55;;;;;;;0.80;0.80;;;8.40;90.10;;;8.11;70.89;95470.47;5071775;28;20203;-17
2023/02/20 05:08:22;;;;;;;0.70;0.70;;;8.30;90.20;;;8.14;71.27;95466.69;5071725;28;20199;-17
2023/02/20 05:10:49;;;;;;;0.80;0.80;;;8.30;90.20;;;8.13;70.98;95454.63;5055781;28;20543;-17
2023/02/20 05:13:16;;;;;;;0.70;0.70;;;8.30;90.20;;;8.20;70.18;95457.41;5055487;28;20669;-17
2023/02/20 05:15:43;;;;;;;0.70;0.70;;;8.30;90.00;;;8.14;70.48;95457.09;5055624;28;20187;-17
2023/02/20 05:18:11;;;;;;;0.60;0.60;;;8.30;90.10;;;8.10;70.46;95458.38;5055973;28;20200;-17
2023/02/20 05:23:23;;;;;;;0.80;0.80;;;8.30;90.10;;;8.12;70.49;95461.66;5055461;28;20270;-17
2023/02/20 05:25:52;;;;;;;0.60;0.60;;;8.30;90.00;;;8.10;70.26;95460.19;5055775;28;20192;-17
2023/02/20 05:28:19;;;;;;;0.80;0.80;;;8.30;90.00;;;8.12;70.29;95468.69;5055435;28;20210;-17
2023/02/20 05:30:46;;;;;;;0.60;0.60;;;8.30;90.10;;;8.10;70.15;95460.19;5055320;28;20211;-17
2023/02/20 05:33:13;;;;;;;0.70;0.70;;;8.30;90.00;;;8.08;69.96;95468.19;5070986;28;20307;-17
2023/02/20 05:35:40;;;;;;;0.70;0.70;;;8.30;90.00;;;8.02;69.94;95467.03;5054727;28;20531;-17
2023/02/20 05:38:07;;;;;;;0.60;0.60;;;8.20;89.70;;;8.01;70.03;95457.56;5055290;28;20270;-17
2023/02/20 05:40:34;;;;;;;0.80;0.80;;;8.20;90.00;;;7.97;70.05;95458.88;5070530;28;20203;-17
2023/02/20 05:43:02;;;;;;;0.70;0.70;;;8.20;90.00;;;8.00;69.94;95462.94;5070749;28;20199;-17
2023/02/20 05:45:29;;;;;;;0.60;0.60;;;8.20;89.80;;;7.96;69.98;95456.44;5055145;28;20206;-17
2023/02/20 05:47:56;;;;;;;0.70;0.70;;;8.10;89.80;;;7.97;70.01;95458.03;5055096;28;20543;-17
2023/02/20 05:50:22;;;;;;;0.60;0.60;;;8.10;90.00;;;7.95;70.09;95463.44;5055660;28;20195;-17
2023/02/20 05:52:50;;;;;;;0.60;0.60;;;8.10;90.00;;;7.96;70.34;95459.84;5054800;28;20550;-17
2023/02/20 05:55:17;;;;;;;0.60;0.60;;;8.20;90.00;;;7.99;70.45;95461.31;5055334;28;20195;-17
2023/02/20 05:57:44;;;;;;;0.70;0.70;;;8.20;90.10;;;7.99;69.89;95469.94;5055282;28;20196;-17
2023/02/20 06:00:12;;;;;;;0.90;0.90;;;8.20;90.00;;;8.00;69.78;95463.75;5054961;28;20195;-17
2023/02/20 06:02:39;;;;;;;0.60;0.60;;;8.20;90.00;;;7.97;69.78;95464.09;5054791;28;20200;-17
2023/02/20 06:05:07;;;;;;;0.80;0.80;;;8.20;90.00;;;7.98;69.92;95465.72;5070660;28;20257;-17
2023/02/20 06:07:34;;;;;;;0.60;0.60;;;8.20;89.90;;;7.93;69.48;95462.75;5053957;28;20298;-17
2023/02/20 06:10:03;;;;;;;0.60;0.60;;;8.20;89.50;;;7.94;69.29;95476.66;5054871;28;20195;-17
2023/02/20 06:12:30;;;;;;;0.60;0.60;;;8.20;89.40;;;7.90;69.63;95467.50;5054762;28;20685;-17
2023/02/20 06:14:57;;;;;;;0.70;0.70;;;8.10;89.50;;;7.90;69.54;95467.50;5054798;28;20658;-17
2023/02/20 06:17:24;;;;;;;0.70;0.70;;;8.10;89.40;;;7.84;69.66;95467.16;5053763;28;20231;-17
2023/02/20 06:19:52;;;;;;;0.70;0.70;;;8.10;89.50;;;7.79;69.55;95477.28;5070299;28;20239;-17
2023/02/20 06:22:19;;;;;;;0.60;0.60;;;8.00;89.40;;;7.80;69.98;95485.91;5054828;28;20206;-17
2023/02/20 06:24:47;;;;;;;0.50;0.50;;;8.00;89.50;;;7.79;70.07;95487.72;5054970;28;20529;-17
2023/02/20 06:27:15;;;;;;;0.60;0.60;;;8.00;89.70;;;7.76;70.04;95492.44;5054369;28;20191;-17
2023/02/20 06:29:43;;;;;;;0.80;0.80;;;8.00;89.70;;;7.82;69.78;95495.25;5054072;28;20206;-17
2023/02/20 06:32:10;;;;;;;0.70;0.70;;;7.90;89.60;;;7.75;70.29;95493.41;5070124;28;20235;-17
2023/02/20 06:34:37;;;;;;;0.60;0.60;;;7.90;89.90;;;7.81;70.30;95505.84;5054877;28;20199;-17
2023/02/20 06:37:04;;;;;;;0.65;0.65;;;7.90;90.00;;;7.84;70.14;95492.47;5054342;28;20196;-17
2023/02/20 06:39:32;;;;;;;0.60;0.60;;;8.00;90.10;;;7.89;70.12;95497.22;5054579;28;20188;-17
2023/02/20 06:41:59;;;;;;;0.70;0.70;;;8.10;90.00;;;7.91;69.54;95490.84;5054378;28;20322;-17
2023/02/20 06:44:26;;;;;;;0.80;0.80;;;8.00;89.70;;;7.87;69.71;95484.31;5055091;28;20184;-17
2023/02/20 06:46:54;;;;;;;0.63;0.63;;;8.00;89.60;;;7.95;69.16;95484.31;5054746;28;20240;-17
2023/02/20 06:49:21;;;;;;;0.80;0.80;;;8.00;89.70;;;7.92;70.07;95484.66;5053573;28;20196;-17
2023/02/20 06:51:53;;;;;;;0.60;0.60;;;8.10;90.00;;;7.96;69.74;95480.75;5056378;28;20192;-17
2023/02/20 06:54:23;;;;;;;0.60;0.60;;;8.10;89.70;;;8.01;69.98;95475.03;5058132;28;20200;-17
2023/02/20 06:56:51;;;;;;;0.60;0.60;;;8.10;90.00;;;8.06;69.77;95482.41;5058598;28;20277;-17
2023/02/20 06:59:18;;;;;;;0.70;0.70;;;8.20;90.00;;;8.16;69.17;95489.06;5073744;28;20587;-17
2023/02/20 07:01:45;;;;;;;0.60;0.60;;;8.20;90.00;;;8.18;69.43;95484.50;5057369;28;20188;-17
2023/02/20 07:04:22;;;;;;;0.70;0.70;;;8.30;90.00;;;8.20;68.93;95478.31;5058347;28;20217;-17
2023/02/20 07:06:51;;;;;;;0.65;0.65;;;8.30;89.50;;;8.26;68.25;95481.06;5058447;28;20181;-17
2023/02/20 07:09:19;;;;;;;0.60;0.60;;;8.40;89.10;;;8.24;68.66;95487.44;5057496;28;20206;-17
2023/02/20 07:11:47;;;;;;;0.60;0.60;;;8.40;89.30;;;8.25;68.63;95491.69;5057093;28;20525;-17
2023/02/20 07:14:14;;;;;;;0.70;0.70;;;8.40;89.40;;;8.28;68.45;95492.19;5057777;28;20266;-17
2023/02/20 07:16:42;;;;;;;0.60;0.60;;;8.40;89.60;;;8.34;68.54;95494.16;5057095;28;20184;-17
2023/02/20 07:19:09;;;;;;;0.60;0.60;;;8.40;89.50;;;8.36;68.71;95487.94;5057968;28;20228;-17
2023/02/20 07:21:36;;;;;;;0.68;0.68;;;8.40;89.80;;;8.39;68.48;95498.09;5073850;28;20218;-17
2023/02/20 07:24:03;;;;;;;0.60;0.60;;;8.50;89.90;;;8.47;68.46;95504.16;5056797;28;20211;-17
2023/02/20 07:26:31;;;;;;;0.70;0.70;;;8.60;89.70;;;8.52;68.11;95495.81;5057687;28;20677;-17
2023/02/20 07:28:59;;;;;;;0.80;0.80;;;8.60;89.30;;;8.54;68.29;95493.03;5057970;28;20200;-17
2023/02/20 07:31:27;;;;;;;0.70;0.70;;;8.70;89.40;;;8.58;68.28;95492.56;5073412;28;20544;-17
2023/02/20 07:33:54;;;;;;;0.70;0.70;;;8.70;88.90;;;8.59;67.81;95501.19;5057396;28;20208;-18
2023/02/20 07:36:21;;;;;;;0.70;0.70;;;8.70;89.10;;;8.68;67.55;95500.22;5057555;28;20196;-17
2023/02/20 07:39:00;;;;;;;0.70;0.70;;;8.80;88.50;;;8.70;67.83;95497.44;5056665;28;20524;-17
2023/02/20 07:41:34;;;;;;;0.70;0.70;;;8.80;88.50;;;8.75;67.53;95482.06;5056544;28;20195;-17
2023/02/20 07:44:03;;;;;;;0.65;0.65;;;8.80;88.80;;;8.83;68.69;95491.72;5056345;28;20219;-17
2023/02/20 07:46:32;;;;;;;0.70;0.70;;;8.90;90.00;;;8.91;68.81;95482.03;5057631;28;20541;-17
2023/02/20 07:49:04;;;;;;;0.65;0.65;;;9.00;90.00;;;9.05;67.50;95479.72;5057565;28;20230;-17
2023/02/20 07:51:32;;;;;;;0.60;0.60;;;9.10;89.50;;;9.13;67.03;95477.88;5056752;28;20262;-17
2023/02/20 07:53:59;;;;;;;0.70;0.70;;;9.20;88.60;;;9.16;66.63;95468.06;5057023;28;20207;-18
2023/02/20 07:56:26;;;;;;;0.70;0.70;;;9.30;88.90;;;9.21;66.36;95473.59;5039872;28;20187;-17
2023/02/20 07:58:53;;;;;;;0.70;0.70;;;9.30;88.40;;;9.24;66.15;95462.78;5057168;28;20188;-17
2023/02/20 08:01:20;;;;;;;0.70;0.70;;;9.40;87.80;;;9.24;65.53;95465.41;5057097;28;20619;-18
2023/02/20 08:03:48;;;;;;;0.80;0.80;;;9.50;87.30;;;9.23;66.10;95454.13;5056610;28;20195;-18
2023/02/20 08:06:19;;;;;;;0.70;0.70;;;9.40;87.80;;;9.20;66.43;95459.69;5073529;28;20200;-17
2023/02/20 08:08:49;;;;;;;0.60;0.60;;;9.40;87.80;;;9.24;65.84;95454.94;5057059;28;20202;-17
2023/02/20 08:11:17;;;;;;;0.88;0.88;;;9.40;87.60;;;9.23;66.58;95471.66;5056942;28;20195;-17
2023/02/20 08:13:45;;;;;;;0.70;0.70;;;9.40;87.80;;;9.25;65.72;95467.03;5056891;28;20281;-17
2023/02/20 08:16:12;;;;;;;0.70;0.70;;;9.40;87.30;;;9.20;65.94;95472.78;5057097;28;20539;-17
2023/02/20 08:18:40;;;;;;;0.70;0.70;;;9.40;87.20;;;9.22;65.59;95460.34;5072282;28;20231;-17
2023/02/20 08:21:07;;;;;;;0.80;0.80;;;9.40;87.00;;;9.22;65.91;95470.81;5057558;28;20177;-18
2023/02/20 08:23:34;;;;;;;0.70;0.70;;;9.40;87.50;;;9.24;65.48;95474.09;5056670;28;20233;-18
2023/02/20 08:26:03;;;;;;;0.70;0.70;;;9.40;87.40;;;9.25;65.57;95477.50;5056562;28;20599;-17
2023/02/20 08:28:30;;;;;;;0.60;0.60;;;9.40;87.10;;;9.18;66.07;95469.53;5056586;28;20200;-17
2023/02/20 08:30:58;;;;;;;0.70;0.70;;;9.40;87.00;;;9.21;65.56;95474.41;5056536;28;20195;-17
2023/02/20 08:33:25;;;;;;;0.70;0.70;;;9.40;86.80;;;9.19;65.33;95470.34;5056296;28;20223;-17
2023/02/20 08:35:54;;;;;;;0.60;0.60;;;9.40;86.40;;;9.18;65.71;95473.94;5056449;28;20521;-17
2023/02/20 08:38:33;;;;;;;0.70;0.70;;;9.40;86.90;;;9.22;65.27;95475.25;5056941;28;20188;-17
2023/02/20 08:41:06;;;;;;;0.70;0.70;;;9.40;85.80;;;9.27;65.64;95472.94;5056442;28;20184;-17
2023/02/20 08:43:35;;;;;;;0.70;0.70;;;9.40;86.20;;;9.32;65.38;95464.56;5071996;28;20183;-17
2023/02/20 08:46:03;;;;;;;0.60;0.60;;;9.50;86.50;;;9.42;64.55;95470.41;5056284;28;20213;-17
2023/02/20 08:48:30;;;;;;;0.65;0.65;;;9.50;85.70;;;9.42;65.17;95462.56;5056236;28;20695;-17
2023/02/20 08:50:57;;;;;;;0.80;0.80;;;9.60;86.90;;;9.49;64.65;95479.22;5056193;28;20200;-17
2023/02/20 08:53:25;;;;;;;0.60;0.60;;;9.60;86.10;;;9.51;65.46;95477.25;5055912;28;20212;-17
2023/02/20 08:55:52;;;;;;;0.80;0.80;;;9.60;87.10;;;9.54;64.54;95473.47;5056236;28;20203;-17
2023/02/20 08:58:23;;;;;;;0.60;0.60;;;9.70;85.90;;;9.59;65.02;95490.31;5056061;28;20191;-17
2023/02/20 09:00:53;;;;;;;0.70;0.70;;;9.70;85.60;;;9.64;64.54;95470.63;5056303;28;20184;-17
2023/02/20 09:03:20;;;;;;;0.60;0.60;;;9.80;85.70;;;9.66;65.42;95468.66;5056048;28;20558;-17
2023/02/20 09:05:48;;;;;;;0.60;0.60;;;9.80;86.70;;;9.72;64.80;95463.53;5071785;28;20638;-17
2023/02/20 09:08:15;;;;;;;0.70;0.70;;;9.80;86.30;;;9.75;64.04;95476.31;5055732;28;20590;-17
2023/02/20 09:10:43;;;;;;;0.70;0.70;;;9.90;85.40;;;9.68;63.65;95467.50;5055788;28;20198;-17
2023/02/20 09:13:10;;;;;;;0.60;0.60;;;9.90;84.30;;;9.67;64.27;95471.09;5055354;28;20540;-17
2023/02/20 09:15:38;;;;;;;0.70;0.70;;;9.90;84.70;;;9.67;64.75;95444.13;5055819;28;20196;-17
2023/02/20 09:18:13;;;;;;;0.63;0.63;;;9.80;85.40;;;9.74;63.29;95445.03;5055645;28;20187;-17
2023/02/20 09:20:40;;;;;;;0.70;0.70;;;9.90;83.80;;;9.77;62.65;95447.31;5071594;28;20286;-17
2023/02/20 09:23:08;;;;;;;0.70;0.70;;;9.90;83.30;;;9.82;62.15;95437.13;5054425;28;20303;-18
2023/02/20 09:25:35;;;;;;;0.60;0.60;;;10.00;81.80;;;9.93;63.10;95473.41;5055324;28;20214;-17
2023/02/20 09:28:03;;;;;;;0.70;0.70;;;10.00;83.60;;;10.07;61.77;95434.31;5055458;28;20206;-17
2023/02/20 09:30:30;;;;;;;0.70;0.70;;;10.10;82.50;;;10.17;61.45;95444.59;5055428;28;20214;-17
2023/02/20 09:32:57;;;;;;;0.70;0.70;;;10.20;80.90;;;10.20;60.74;95426.69;5054619;28;20196;-17
2023/02/20 09:35:29;;;;;;;0.70;0.70;;;10.30;80.80;;;10.25;60.96;95434.03;5055223;28;20184;-17
2023/02/20 09:37:56;;;;;;;0.60;0.60;;;10.50;80.80;;;10.26;60.79;95417.31;5055150;28;20218;-17
2023/02/20 09:40:29;;;;;;;0.70;0.70;;;10.40;80.40;;;10.32;61.13;95421.84;5055264;28;20199;-17
2023/02/20 09:43:19;;;;;;;0.60;0.60;;;10.50;81.00;;;10.33;60.58;95420.03;5071245;28;20287;-17
2023/02/20 09:46:03;;;;;;;0.60;0.60;;;10.50;80.00;;;10.31;60.39;95432.50;5055770;28;20190;-18
2023/02/20 09:48:36;;;;;;;0.63;0.63;;;10.50;79.50;;;10.30;59.94;95409.91;5055176;28;20183;-17
2023/02/20 09:51:17;;;;;;;0.73;0.73;;;10.50;78.90;;;10.25;60.63;95408.63;5055121;28;20206;-17
2023/02/20 09:53:57;;;;;;;0.70;0.70;;;10.50;79.60;;;10.35;60.59;95370.84;5071307;28;20203;-17
2023/02/20 09:56:30;;;;;;;0.70;0.70;;;10.50;79.80;;;10.33;60.14;95397.25;5054783;28;20186;-17
2023/02/20 09:59:04;;;;;;;0.80;0.80;;;10.60;79.00;;;10.41;58.59;95420.81;5070632;28;20180;-17
2023/02/20 10:01:34;;;;;;;0.68;0.68;;;10.60;78.50;;;10.41;59.88;95399.00;5055547;28;20172;-17
2023/02/20 10:04:12;;;;;;;0.70;0.70;;;10.60;79.70;;;10.48;58.52;95380.75;5054272;28;20193;-18
2023/02/20 10:06:39;;;;;;;0.70;0.70;;;10.60;77.80;;;10.56;59.38;95372.81;5055511;28;20274;-17
2023/02/20 10:09:12;;;;;;;0.65;0.65;;;10.70;78.80;;;10.67;59.67;95390.72;5053839;28;20192;-18
2023/02/20 10:11:59;;;;;;;0.80;0.80;;;10.80;78.70;;;10.79;60.87;95387.63;5070628;28;20220;-18
2023/02/20 10:14:47;;;;;;;0.63;0.63;;;10.90;79.30;;;10.88;59.41;95376.06;5054001;28;20206;-17
2023/02/20 10:17:31;;;;;;;0.65;0.65;;;11.00;78.30;;;10.97;58.46;95376.78;5054921;28;20186;-17
2023/02/20 10:20:08;;;;;;;0.60;0.60;;;11.10;77.20;;;10.94;57.20;95385.03;5070392;28;20231;-17
2023/02/20 10:22:52;;;;;;;0.60;0.60;;;11.20;76.40;;;10.93;58.21;95367.66;5037497;28;20281;-17
2023/02/20 10:25:39;;;;;;;0.60;0.60;;;11.10;76.30;;;10.89;57.79;95375.06;5056230;28;20618;-17
2023/02/20 10:28:15;;;;;;;0.60;0.60;;;11.10;75.90;;;10.86;56.41;95357.88;5074536;28;20187;-17
2023/02/20 10:30:49;;;;;;;0.60;0.60;;;11.20;75.40;;;10.89;57.43;95377.69;5059380;28;20273;-17
2023/02/20 10:33:46;;;;;;;0.70;0.70;;;11.10;75.30;;;10.92;56.75;95368.66;5074737;28;20244;-18
2023/02/20 10:36:35;;;;;;;0.65;0.65;;;11.10;75.30;;;11.03;57.07;95384.75;5058726;28;20506;-18
2023/02/20 10:39:09;;;;;;;0.60;0.60;;;11.20;75.40;;;11.10;58.39;95358.56;5058681;28;20184;-17
2023/02/20 10:42:09;;;;;;;0.63;0.63;;;11.30;76.00;;;11.33;57.37;95366.31;5058780;28;20588;-18
2023/02/20 10:45:11;;;;;;;0.60;0.60;;;11.50;75.60;;;11.47;55.55;95376.94;5074852;28;20207;-17
2023/02/20 10:48:07;;;;;;;0.60;0.60;;;11.60;75.40;;;11.46;54.38;95378.78;5048565;28;20653;-17
2023/02/20 10:51:03;;;;;;;0.60;0.60;;;11.70;73.90;;;11.45;54.77;95365.81;5053501;28;20677;-17
2023/02/20 10:53:45;;;;;;;0.60;0.60;;;11.70;73.70;;;11.55;55.63;95382.09;5053071;28;20259;-17
2023/02/20 10:56:17;;;;;;;0.60;0.60;;;11.80;74.60;;;11.65;55.02;95392.31;5058478;28;20176;-18
2023/02/20 10:59:19;;;;;;;0.60;0.60;;;11.80;73.60;;;11.80;54.22;95360.72;5058297;28;20607;-17
2023/02/20 11:01:54;;;;;;;0.70;0.70;;;12.00;74.00;;;11.95;52.88;95356.19;5057707;28;20198;-17
2023/02/20 11:04:31;;;;;;;0.65;0.65;;;12.10;72.10;;;11.99;53.32;95338.28;5074457;28;20189;-17
2023/02/20 11:07:08;;;;;;;0.70;0.70;;;12.20;72.10;;;12.07;53.00;95327.63;5058453;28;20180;-17
2023/02/20 11:09:35;;;;;;;0.70;0.70;;;12.30;72.20;;;12.17;52.82;95335.19;5057991;28;20194;-17
2023/02/20 11:12:03;;;;;;;0.70;0.70;;;12.40;72.10;;;12.21;51.79;95336.41;5057202;28;20201;-17